»·PEaware :: N843SC F70-KTOA

N843SC :: F70-KTOA

FLIGHT INFORMATION

Flight Status: Arrived
Operator: Privately registered:
United States
More flights under this callsign
Pilot: Elliott T. (30246)
Aircraft: PIPER PA-28R-201 ARROW
(P28R)
More flights by this aircraft type
Origin: F70 French Valley
United States
Destination: KTOA Zamperini
United States
More flights between these airports :: More routes between these airports
Route: PDZ PDZ270/016 DOWDD V394 SLI
File this flight plan on PilotEdge
Remarks: ONTP9
Altitude:
(Current/Filed)
4,000ft
Speed:
(Current/Filed)
120kts
Departed: 16-Jun-21 06:54 PM
Arrived: 16-Jun-21 07:40 PM
Distance/Time
Traveled:
62nm/0:46
Distance/Time
To Go:
Arrived

Flight Plot

Page will automatically refresh every two minutes.

Flight plan parsing failed; only flown route is shown


Map Options




Map Legend


Flown Route
Filed Route
Departure Airport
Arrival Airport
Navaid (VOR, NDB)
Fix

Horizontal Profiles

Position Reports

Time Latitude Longitude Heading Altitude Ground
Speed
16-Jun-21 18:40 33.580452 -117.127918 282 1348ft 0kts
16-Jun-21 18:41 33.580452 -117.127918 282 1348ft 0kts
16-Jun-21 18:42 33.580452 -117.127918 282 1348ft 0kts
16-Jun-21 18:43 33.580453 -117.127918 282 1348ft 0kts
16-Jun-21 18:44 33.580453 -117.127918 282 1348ft 0kts
16-Jun-21 18:45 33.580453 -117.127918 282 1348ft 0kts
16-Jun-21 18:46 33.580453 -117.127918 282 1348ft 0kts
16-Jun-21 18:47 33.580496 -117.127996 313 1348ft 2kts
16-Jun-21 18:48 33.581811 -117.127301 34 1353ft 6kts
16-Jun-21 18:49 33.582282 -117.127019 78 1354ft 0kts
16-Jun-21 18:50 33.582282 -117.127019 78 1354ft 0kts
16-Jun-21 18:51 33.582282 -117.127019 78 1354ft 0kts
16-Jun-21 18:52 33.582282 -117.127019 78 1354ft 0kts
16-Jun-21 18:53 33.581616 -117.126548 191 1353ft 10kts
16-Jun-21 18:54 33.564041 -117.131354 194 1716ft 85kts
16-Jun-21 18:54 33.558606 -117.148985 312 2335ft 91kts
16-Jun-21 18:55 33.579896 -117.167820 323 2945ft 98kts
16-Jun-21 18:57 33.608803 -117.189289 326 3197ft 109kts
16-Jun-21 18:58 33.632556 -117.212755 319 3289ft 112kts
16-Jun-21 18:59 33.657533 -117.237192 314 3269ft 117kts
16-Jun-21 18:59 33.676989 -117.259560 314 3281ft 116kts
16-Jun-21 19:00 33.699344 -117.284893 314 3674ft 108kts
16-Jun-21 19:01 33.721588 -117.309961 315 4029ft 114kts
16-Jun-21 19:02 33.746670 -117.337291 317 4089ft 124kts
16-Jun-21 19:03 33.772882 -117.365268 313 4106ft 127kts
16-Jun-21 19:05 33.803047 -117.398919 315 3994ft 126kts
16-Jun-21 19:05 33.824309 -117.423262 315 3949ft 126kts
16-Jun-21 19:06 33.849975 -117.452324 315 3902ft 126kts
16-Jun-21 19:07 33.875507 -117.481309 314 3893ft 126kts
16-Jun-21 19:08 33.901219 -117.510453 315 3867ft 126kts
16-Jun-21 19:09 33.920627 -117.545062 290 3869ft 125kts
16-Jun-21 19:10 33.930205 -117.583755 283 3958ft 121kts
16-Jun-21 19:11 33.938968 -117.622541 283 4042ft 120kts
16-Jun-21 19:12 33.947728 -117.661888 283 4078ft 124kts
16-Jun-21 19:13 33.956657 -117.702138 283 4052ft 124kts
16-Jun-21 19:14 33.965640 -117.742683 282 4012ft 125kts
16-Jun-21 19:15 33.974356 -117.782018 283 3996ft 125kts
16-Jun-21 19:16 33.983156 -117.821908 283 3990ft 125kts
16-Jun-21 19:17 33.961967 -117.845250 192 3946ft 123kts
16-Jun-21 19:18 33.930140 -117.859110 201 3945ft 122kts
16-Jun-21 19:19 33.897606 -117.870911 193 3934ft 123kts
16-Jun-21 19:20 33.865159 -117.879313 192 3923ft 123kts
16-Jun-21 19:21 33.831868 -117.887727 192 3913ft 122kts
16-Jun-21 19:22 33.798621 -117.896030 192 3899ft 123kts
16-Jun-21 19:23 33.765281 -117.904245 192 3888ft 122kts
16-Jun-21 19:24 33.753680 -117.934013 280 3808ft 124kts
16-Jun-21 19:25 33.760294 -117.967188 282 3889ft 119kts
16-Jun-21 19:26 33.772793 -117.998978 301 3939ft 121kts
16-Jun-21 19:27 33.790660 -118.031041 296 4008ft 120kts
16-Jun-21 19:28 33.797297 -118.068282 278 4079ft 117kts
16-Jun-21 19:29 33.802892 -118.107311 278 4105ft 121kts
16-Jun-21 19:30 33.808350 -118.146693 277 4031ft 121kts
16-Jun-21 19:31 33.813905 -118.187040 277 3643ft 121kts
16-Jun-21 19:32 33.819229 -118.225004 277 3032ft 125kts
16-Jun-21 19:33 33.822584 -118.265761 280 2681ft 123kts
16-Jun-21 19:34 33.832546 -118.305432 297 2161ft 126kts
16-Jun-21 19:35 33.848887 -118.338620 280 1599ft 101kts
16-Jun-21 19:36 33.834676 -118.362092 204 1001ft 82kts
16-Jun-21 19:37 33.816093 -118.357389 133 526ft 69kts
16-Jun-21 19:38 33.804910 -118.340949 125 94ft 54kts
16-Jun-21 19:39 33.800894 -118.336111 148 95ft 0kts
16-Jun-21 19:40 33.800892 -118.336109 149 95ft 0kts
16-Jun-21 19:41 33.798478 -118.335634 176 105ft 16kts

Navigation Log

Ident Type
Flight plan parsing failed, navigation log unavailable